sensor_id;sensor_type;location;lat;lon;timestamp;P1;durP1;ratioP1;P2;durP2;ratioP2
8327;SDS011;4201;48.754;8.864;2023-07-20T02:30:07;5.90;;;3.50;;
8327;SDS011;4201;48.754;8.864;2023-07-20T02:32:34;6.17;;;3.40;;
8327;SDS011;4201;48.754;8.864;2023-07-20T02:35:00;8.23;;;3.77;;
8327;SDS011;4201;48.754;8.864;2023-07-20T02:37:28;8.80;;;3.87;;
8327;SDS011;4201;48.754;8.864;2023-07-20T02:39:54;6.43;;;2.90;;
8327;SDS011;4201;48.754;8.864;2023-07-20T02:42:21;4.90;;;3.07;;
8327;SDS011;4201;48.754;8.864;2023-07-20T02:44:49;8.57;;;4.73;;
8327;SDS011;4201;48.754;8.864;2023-07-20T02:47:16;5.07;;;3.23;;
8327;SDS011;4201;48.754;8.864;2023-07-20T02:49:43;5.57;;;3.33;;
8327;SDS011;4201;48.754;8.864;2023-07-20T02:52:09;8.00;;;3.80;;
8327;SDS011;4201;48.754;8.864;2023-07-20T02:54:35;6.47;;;3.67;;
8327;SDS011;4201;48.754;8.864;2023-07-20T02:57:01;11.23;;;4.10;;
8327;SDS011;4201;48.754;8.864;2023-07-20T02:59:27;4.97;;;3.07;;
8327;SDS011;4201;48.754;8.864;2023-07-20T03:01:54;6.13;;;3.50;;
8327;SDS011;4201;48.754;8.864;2023-07-20T03:04:22;6.20;;;3.27;;
8327;SDS011;4201;48.754;8.864;2023-07-20T03:06:49;9.30;;;3.93;;
8327;SDS011;4201;48.754;8.864;2023-07-20T03:09:15;9.57;;;3.77;;
8327;SDS011;4201;48.754;8.864;2023-07-20T03:11:41;5.30;;;3.03;;
8327;SDS011;4201;48.754;8.864;2023-07-20T03:14:07;6.00;;;3.67;;
8327;SDS011;4201;48.754;8.864;2023-07-20T03:16:35;6.77;;;3.20;;
8327;SDS011;4201;48.754;8.864;2023-07-20T03:19:02;5.60;;;3.40;;
8327;SDS011;4201;48.754;8.864;2023-07-20T03:21:29;8.83;;;3.70;;
8327;SDS011;4201;48.754;8.864;2023-07-20T03:23:56;6.60;;;3.30;;
8327;SDS011;4201;48.754;8.864;2023-07-20T03:26:22;5.10;;;3.20;;
8327;SDS011;4201;48.754;8.864;2023-07-20T03:28:48;8.17;;;4.00;;
8327;SDS011;4201;48.754;8.864;2023-07-20T03:31:14;6.67;;;3.73;;
8327;SDS011;4201;48.754;8.864;2023-07-20T03:33:41;6.57;;;3.30;;
8327;SDS011;4201;48.754;8.864;2023-07-20T03:36:07;10.00;;;3.70;;
8327;SDS011;4201;48.754;8.864;2023-07-20T03:38:36;10.73;;;4.13;;
8327;SDS011;4201;48.754;8.864;2023-07-20T03:41:02;6.97;;;3.53;;
8327;SDS011;4201;48.754;8.864;2023-07-20T03:43:28;8.80;;;4.20;;
8327;SDS011;4201;48.754;8.864;2023-07-20T03:45:55;4.60;;;3.60;;
8327;SDS011;4201;48.754;8.864;2023-07-20T03:48:22;5.57;;;3.30;;
8327;SDS011;4201;48.754;8.864;2023-07-20T03:50:49;7.00;;;3.30;;
8327;SDS011;4201;48.754;8.864;2023-07-20T03:53:16;10.70;;;4.20;;
8327;SDS011;4201;48.754;8.864;2023-07-20T03:55:45;7.47;;;3.03;;
8327;SDS011;4201;48.754;8.864;2023-07-20T03:58:11;11.17;;;3.73;;
8327;SDS011;4201;48.754;8.864;2023-07-20T04:00:38;6.90;;;4.20;;
8327;SDS011;4201;48.754;8.864;2023-07-20T04:03:04;6.77;;;4.30;;
8327;SDS011;4201;48.754;8.864;2023-07-20T04:05:31;6.10;;;3.63;;
8327;SDS011;4201;48.754;8.864;2023-07-20T04:07:59;6.63;;;3.70;;
8327;SDS011;4201;48.754;8.864;2023-07-20T04:10:25;5.57;;;3.67;;
8327;SDS011;4201;48.754;8.864;2023-07-20T04:12:53;5.13;;;3.87;;
8327;SDS011;4201;48.754;8.864;2023-07-20T04:15:19;6.57;;;4.07;;
8327;SDS011;4201;48.754;8.864;2023-07-20T04:17:45;4.77;;;3.40;;
8327;SDS011;4201;48.754;8.864;2023-07-20T04:20:12;11.80;;;3.87;;
8327;SDS011;4201;48.754;8.864;2023-07-20T04:22:38;9.73;;;4.03;;
8327;SDS011;4201;48.754;8.864;2023-07-20T04:25:04;9.60;;;3.63;;
8327;SDS011;4201;48.754;8.864;2023-07-20T04:27:31;6.67;;;3.13;;
8327;SDS011;4201;48.754;8.864;2023-07-20T04:29:58;6.83;;;3.60;;
8327;SDS011;4201;48.754;8.864;2023-07-20T04:32:25;6.70;;;3.80;;
8327;SDS011;4201;48.754;8.864;2023-07-20T04:34:51;8.13;;;4.17;;
8327;SDS011;4201;48.754;8.864;2023-07-20T04:37:18;10.60;;;4.43;;
8327;SDS011;4201;48.754;8.864;2023-07-20T04:39:44;13.70;;;4.53;;
8327;SDS011;4201;48.754;8.864;2023-07-20T04:42:10;5.50;;;3.93;;
8327;SDS011;4201;48.754;8.864;2023-07-20T04:44:36;8.10;;;4.37;;
8327;SDS011;4201;48.754;8.864;2023-07-20T04:47:04;7.47;;;3.83;;
8327;SDS011;4201;48.754;8.864;2023-07-20T04:49:30;6.67;;;3.70;;
8327;SDS011;4201;48.754;8.864;2023-07-20T04:51:57;6.27;;;3.83;;
8327;SDS011;4201;48.754;8.864;2023-07-20T04:54:23;6.03;;;3.70;;
8327;SDS011;4201;48.754;8.864;2023-07-20T04:56:49;8.40;;;3.97;;
8327;SDS011;4201;48.754;8.864;2023-07-20T04:59:15;8.23;;;4.40;;
8327;SDS011;4201;48.754;8.864;2023-07-20T05:01:42;8.30;;;4.73;;
8327;SDS011;4201;48.754;8.864;2023-07-20T05:04:09;5.87;;;4.00;;
8327;SDS011;4201;48.754;8.864;2023-07-20T05:06:36;8.63;;;4.90;;
8327;SDS011;4201;48.754;8.864;2023-07-20T05:09:04;8.57;;;3.67;;
8327;SDS011;4201;48.754;8.864;2023-07-20T05:11:30;8.70;;;3.90;;
8327;SDS011;4201;48.754;8.864;2023-07-20T05:13:56;14.67;;;4.93;;
8327;SDS011;4201;48.754;8.864;2023-07-20T05:16:22;6.63;;;3.80;;
8327;SDS011;4201;48.754;8.864;2023-07-20T05:18:49;13.83;;;4.70;;
8327;SDS011;4201;48.754;8.864;2023-07-20T05:21:16;11.20;;;3.90;;
8327;SDS011;4201;48.754;8.864;2023-07-20T05:23:43;5.60;;;3.40;;
8327;SDS011;4201;48.754;8.864;2023-07-20T05:26:09;12.20;;;4.03;;
8327;SDS011;4201;48.754;8.864;2023-07-20T05:28:36;10.97;;;3.80;;
8327;SDS011;4201;48.754;8.864;2023-07-20T05:31:02;9.13;;;3.47;;
8327;SDS011;4201;48.754;8.864;2023-07-20T05:33:28;6.20;;;3.40;;
8327;SDS011;4201;48.754;8.864;2023-07-20T05:35:54;6.70;;;3.80;;
8327;SDS011;4201;48.754;8.864;2023-07-20T05:38:22;8.17;;;4.03;;
8327;SDS011;4201;48.754;8.864;2023-07-20T05:40:48;4.50;;;2.83;;
8327;SDS011;4201;48.754;8.864;2023-07-20T05:43:15;5.77;;;3.53;;
8327;SDS011;4201;48.754;8.864;2023-07-20T05:45:41;10.07;;;3.47;;
8327;SDS011;4201;48.754;8.864;2023-07-20T05:48:08;8.57;;;3.93;;
8327;SDS011;4201;48.754;8.864;2023-07-20T05:50:36;7.57;;;3.83;;
8327;SDS011;4201;48.754;8.864;2023-07-20T05:53:02;10.43;;;3.40;;
8327;SDS011;4201;48.754;8.864;2023-07-20T05:55:30;4.60;;;3.00;;
8327;SDS011;4201;48.754;8.864;2023-07-20T05:57:57;6.30;;;3.30;;
8327;SDS011;4201;48.754;8.864;2023-07-20T06:00:23;8.63;;;3.77;;
8327;SDS011;4201;48.754;8.864;2023-07-20T06:02:51;5.93;;;3.33;;
8327;SDS011;4201;48.754;8.864;2023-07-20T06:05:18;6.93;;;4.20;;
8327;SDS011;4201;48.754;8.864;2023-07-20T06:07:45;9.00;;;3.50;;
8327;SDS011;4201;48.754;8.864;2023-07-20T06:10:11;5.23;;;2.90;;
8327;SDS011;4201;48.754;8.864;2023-07-20T06:12:39;4.37;;;3.27;;
8327;SDS011;4201;48.754;8.864;2023-07-20T06:15:12;6.17;;;3.60;;
8327;SDS011;4201;48.754;8.864;2023-07-20T06:17:50;5.53;;;3.60;;
8327;SDS011;4201;48.754;8.864;2023-07-20T06:20:16;6.00;;;3.60;;
8327;SDS011;4201;48.754;8.864;2023-07-20T06:22:43;5.90;;;3.50;;
8327;SDS011;4201;48.754;8.864;2023-07-20T06:25:10;6.50;;;3.57;;
8327;SDS011;4201;48.754;8.864;2023-07-20T06:27:36;4.97;;;3.30;;
8327;SDS011;4201;48.754;8.864;2023-07-20T06:30:05;5.13;;;3.07;;
8327;SDS011;4201;48.754;8.864;2023-07-20T06:32:31;7.50;;;3.20;;
8327;SDS011;4201;48.754;8.864;2023-07-20T06:34:57;9.53;;;3.40;;
8327;SDS011;4201;48.754;8.864;2023-07-20T06:37:24;6.20;;;3.60;;
8327;SDS011;4201;48.754;8.864;2023-07-20T06:39:50;8.03;;;3.27;;
8327;SDS011;4201;48.754;8.864;2023-07-20T06:42:16;7.03;;;3.00;;
8327;SDS011;4201;48.754;8.864;2023-07-20T06:44:42;5.13;;;3.00;;
8327;SDS011;4201;48.754;8.864;2023-07-20T06:47:10;8.67;;;3.17;;
8327;SDS011;4201;48.754;8.864;2023-07-20T06:49:37;5.17;;;3.50;;
8327;SDS011;4201;48.754;8.864;2023-07-20T06:52:03;6.57;;;3.20;;
8327;SDS011;4201;48.754;8.864;2023-07-20T06:54:30;6.23;;;3.20;;
8327;SDS011;4201;48.754;8.864;2023-07-20T06:56:56;6.13;;;3.10;;
8327;SDS011;4201;48.754;8.864;2023-07-20T06:59:22;11.97;;;3.90;;
8327;SDS011;4201;48.754;8.864;2023-07-20T07:01:49;6.57;;;3.50;;
8327;SDS011;4201;48.754;8.864;2023-07-20T07:04:17;4.30;;;2.57;;
8327;SDS011;4201;48.754;8.864;2023-07-20T07:06:43;8.27;;;3.73;;
8327;SDS011;4201;48.754;8.864;2023-07-20T07:09:09;11.23;;;3.57;;
8327;SDS011;4201;48.754;8.864;2023-07-20T07:11:35;6.47;;;3.20;;
8327;SDS011;4201;48.754;8.864;2023-07-20T07:14:02;6.40;;;3.47;;
8327;SDS011;4201;48.754;8.864;2023-07-20T07:16:28;6.57;;;3.90;;
8327;SDS011;4201;48.754;8.864;2023-07-20T07:18:54;5.47;;;3.07;;
8327;SDS011;4201;48.754;8.864;2023-07-20T07:21:22;4.07;;;2.90;;
8327;SDS011;4201;48.754;8.864;2023-07-20T07:23:48;7.43;;;3.30;;
8327;SDS011;4201;48.754;8.864;2023-07-20T07:26:18;5.97;;;2.97;;
8327;SDS011;4201;48.754;8.864;2023-07-20T07:28:44;6.50;;;3.00;;
8327;SDS011;4201;48.754;8.864;2023-07-20T07:31:11;5.80;;;2.83;;
8327;SDS011;4201;48.754;8.864;2023-07-20T07:33:37;7.33;;;2.90;;
8327;SDS011;4201;48.754;8.864;2023-07-20T07:36:03;5.87;;;3.03;;
8327;SDS011;4201;48.754;8.864;2023-07-20T07:38:31;5.23;;;3.20;;
8327;SDS011;4201;48.754;8.864;2023-07-20T07:40:57;4.60;;;3.00;;
8327;SDS011;4201;48.754;8.864;2023-07-20T07:43:23;5.00;;;3.37;;
8327;SDS011;4201;48.754;8.864;2023-07-20T07:45:50;6.10;;;3.17;;
8327;SDS011;4201;48.754;8.864;2023-07-20T07:48:16;8.13;;;3.30;;
8327;SDS011;4201;48.754;8.864;2023-07-20T07:50:42;9.27;;;3.50;;
8327;SDS011;4201;48.754;8.864;2023-07-20T07:53:09;7.37;;;3.87;;
8327;SDS011;4201;48.754;8.864;2023-07-20T07:55:36;9.93;;;3.33;;
8327;SDS011;4201;48.754;8.864;2023-07-20T07:58:03;7.60;;;3.30;;
8327;SDS011;4201;48.754;8.864;2023-07-20T08:00:29;5.77;;;3.20;;
8327;SDS011;4201;48.754;8.864;2023-07-20T08:02:55;7.97;;;3.50;;
8327;SDS011;4201;48.754;8.864;2023-07-20T08:05:21;4.90;;;2.93;;
8327;SDS011;4201;48.754;8.864;2023-07-20T08:07:48;4.50;;;3.20;;
8327;SDS011;4201;48.754;8.864;2023-07-20T08:10:14;6.33;;;3.67;;
8327;SDS011;4201;48.754;8.864;2023-07-20T08:12:41;4.97;;;3.07;;
8327;SDS011;4201;48.754;8.864;2023-07-20T08:15:10;5.83;;;2.90;;
8327;SDS011;4201;48.754;8.864;2023-07-20T08:17:36;5.93;;;3.10;;
8327;SDS011;4201;48.754;8.864;2023-07-20T08:20:03;7.47;;;3.13;;
8327;SDS011;4201;48.754;8.864;2023-07-20T08:22:31;10.97;;;3.73;;
8327;SDS011;4201;48.754;8.864;2023-07-20T08:24:57;6.17;;;4.00;;
8327;SDS011;4201;48.754;8.864;2023-07-20T08:27:23;5.67;;;3.03;;
8327;SDS011;4201;48.754;8.864;2023-07-20T08:29:51;6.37;;;3.47;;
8327;SDS011;4201;48.754;8.864;2023-07-20T08:32:17;6.10;;;3.27;;
8327;SDS011;4201;48.754;8.864;2023-07-20T08:34:43;5.27;;;2.83;;
8327;SDS011;4201;48.754;8.864;2023-07-20T08:37:09;3.40;;;2.10;;
8327;SDS011;4201;48.754;8.864;2023-07-20T08:39:36;6.40;;;2.30;;
8327;SDS011;4201;48.754;8.864;2023-07-20T08:42:02;6.40;;;2.47;;
8327;SDS011;4201;48.754;8.864;2023-07-20T08:44:29;8.20;;;3.20;;
8327;SDS011;4201;48.754;8.864;2023-07-20T08:46:59;3.80;;;2.80;;
8327;SDS011;4201;48.754;8.864;2023-07-20T08:49:27;4.87;;;2.97;;
8327;SDS011;4201;48.754;8.864;2023-07-20T08:51:53;3.13;;;2.27;;
8327;SDS011;4201;48.754;8.864;2023-07-20T08:54:20;4.67;;;2.50;;
8327;SDS011;4201;48.754;8.864;2023-07-20T08:56:46;4.07;;;2.50;;
8327;SDS011;4201;48.754;8.864;2023-07-20T08:59:13;5.70;;;2.43;;
8327;SDS011;4201;48.754;8.864;2023-07-20T09:01:40;3.67;;;2.40;;
8327;SDS011;4201;48.754;8.864;2023-07-20T09:04:08;5.77;;;2.67;;
8327;SDS011;4201;48.754;8.864;2023-07-20T09:06:35;3.03;;;2.03;;
8327;SDS011;4201;48.754;8.864;2023-07-20T09:09:01;3.40;;;2.23;;
8327;SDS011;4201;48.754;8.864;2023-07-20T09:11:28;5.33;;;2.87;;
8327;SDS011;4201;48.754;8.864;2023-07-20T09:14:04;4.40;;;2.67;;
8327;SDS011;4201;48.754;8.864;2023-07-20T09:16:30;4.17;;;2.30;;
8327;SDS011;4201;48.754;8.864;2023-07-20T09:18:57;3.40;;;2.30;;
8327;SDS011;4201;48.754;8.864;2023-07-20T09:21:25;4.10;;;2.37;;
8327;SDS011;4201;48.754;8.864;2023-07-20T09:23:55;4.53;;;1.90;;
8327;SDS011;4201;48.754;8.864;2023-07-20T09:26:22;4.23;;;1.97;;
8327;SDS011;4201;48.754;8.864;2023-07-20T09:28:49;4.00;;;2.30;;
8327;SDS011;4201;48.754;8.864;2023-07-20T09:31:16;4.10;;;2.43;;
8327;SDS011;4201;48.754;8.864;2023-07-20T09:33:42;5.70;;;2.17;;
8327;SDS011;4201;48.754;8.864;2023-07-20T09:36:09;5.50;;;2.60;;
8327;SDS011;4201;48.754;8.864;2023-07-20T09:38:37;7.77;;;2.07;;
8327;SDS011;4201;48.754;8.864;2023-07-20T09:41:04;4.60;;;2.43;;
8327;SDS011;4201;48.754;8.864;2023-07-20T09:43:31;4.33;;;2.10;;
8327;SDS011;4201;48.754;8.864;2023-07-20T09:45:58;5.20;;;2.43;;
8327;SDS011;4201;48.754;8.864;2023-07-20T09:48:24;5.23;;;2.20;;
8327;SDS011;4201;48.754;8.864;2023-07-20T09:50:51;3.87;;;2.20;;
8327;SDS011;4201;48.754;8.864;2023-07-20T09:53:18;5.33;;;2.30;;
8327;SDS011;4201;48.754;8.864;2023-07-20T09:55:46;4.03;;;2.20;;
8327;SDS011;4201;48.754;8.864;2023-07-20T09:58:12;5.60;;;2.70;;
8327;SDS011;4201;48.754;8.864;2023-07-20T10:00:39;4.53;;;2.17;;
8327;SDS011;4201;48.754;8.864;2023-07-20T10:03:08;4.80;;;2.23;;
8327;SDS011;4201;48.754;8.864;2023-07-20T10:05:36;5.33;;;2.07;;
8327;SDS011;4201;48.754;8.864;2023-07-20T10:08:05;5.33;;;2.27;;
8327;SDS011;4201;48.754;8.864;2023-07-20T10:10:36;4.80;;;2.10;;
8327;SDS011;4201;48.754;8.864;2023-07-20T10:13:05;2.67;;;1.80;;
8327;SDS011;4201;48.754;8.864;2023-07-20T10:15:35;5.33;;;2.47;;
8327;SDS011;4201;48.754;8.864;2023-07-20T10:18:03;4.23;;;1.97;;
8327;SDS011;4201;48.754;8.864;2023-07-20T10:20:34;4.07;;;1.80;;
8327;SDS011;4201;48.754;8.864;2023-07-20T10:23:01;4.40;;;2.20;;
8327;SDS011;4201;48.754;8.864;2023-07-20T10:25:28;8.03;;;2.00;;
8327;SDS011;4201;48.754;8.864;2023-07-20T10:27:54;2.83;;;1.47;;
8327;SDS011;4201;48.754;8.864;2023-07-20T10:30:22;3.80;;;1.97;;
8327;SDS011;4201;48.754;8.864;2023-07-20T10:32:49;4.20;;;1.83;;
8327;SDS011;4201;48.754;8.864;2023-07-20T10:35:16;6.63;;;2.30;;
8327;SDS011;4201;48.754;8.864;2023-07-20T10:37:46;3.63;;;2.17;;
8327;SDS011;4201;48.754;8.864;2023-07-20T10:40:29;3.73;;;2.20;;
8327;SDS011;4201;48.754;8.864;2023-07-20T10:42:57;3.73;;;1.83;;
8327;SDS011;4201;48.754;8.864;2023-07-20T10:45:34;5.37;;;1.97;;
8327;SDS011;4201;48.754;8.864;2023-07-20T10:48:02;3.03;;;1.97;;
8327;SDS011;4201;48.754;8.864;2023-07-20T10:50:29;4.80;;;2.20;;
8327;SDS011;4201;48.754;8.864;2023-07-20T10:53:03;4.73;;;1.80;;
8327;SDS011;4201;48.754;8.864;2023-07-20T10:55:31;8.80;;;1.80;;
8327;SDS011;4201;48.754;8.864;2023-07-20T10:58:06;3.00;;;1.50;;
8327;SDS011;4201;48.754;8.864;2023-07-20T11:00:34;3.07;;;1.77;;
8327;SDS011;4201;48.754;8.864;2023-07-20T11:03:00;6.67;;;1.80;;
8327;SDS011;4201;48.754;8.864;2023-07-20T11:05:37;4.30;;;2.13;;
8327;SDS011;4201;48.754;8.864;2023-07-20T11:08:04;7.90;;;2.23;;
8327;SDS011;4201;48.754;8.864;2023-07-20T11:10:31;2.87;;;1.77;;
8327;SDS011;4201;48.754;8.864;2023-07-20T11:13:19;2.63;;;1.53;;
8327;SDS011;4201;48.754;8.864;2023-07-20T11:15:48;10.97;;;1.87;;
8327;SDS011;4201;48.754;8.864;2023-07-20T11:18:27;5.43;;;2.13;;
8327;SDS011;4201;48.754;8.864;2023-07-20T11:20:53;5.50;;;1.93;;
8327;SDS011;4201;48.754;8.864;2023-07-20T11:23:19;4.03;;;1.60;;
8327;SDS011;4201;48.754;8.864;2023-07-20T11:25:46;3.77;;;2.03;;
8327;SDS011;4201;48.754;8.864;2023-07-20T11:28:12;11.00;;;8.57;;
8327;SDS011;4201;48.754;8.864;2023-07-20T11:30:38;7.87;;;2.80;;
8327;SDS011;4201;48.754;8.864;2023-07-20T11:33:06;5.13;;;4.63;;
8327;SDS011;4201;48.754;8.864;2023-07-20T11:35:35;3.10;;;2.33;;
8327;SDS011;4201;48.754;8.864;2023-07-20T11:38:01;4.10;;;2.17;;
8327;SDS011;4201;48.754;8.864;2023-07-20T11:40:27;4.50;;;1.90;;
8327;SDS011;4201;48.754;8.864;2023-07-20T11:42:54;3.20;;;1.77;;
8327;SDS011;4201;48.754;8.864;2023-07-20T11:45:20;5.00;;;2.13;;
8327;SDS011;4201;48.754;8.864;2023-07-20T11:47:46;4.47;;;1.77;;
8327;SDS011;4201;48.754;8.864;2023-07-20T11:50:14;4.07;;;2.40;;
8327;SDS011;4201;48.754;8.864;2023-07-20T11:52:41;7.13;;;2.03;;
8327;SDS011;4201;48.754;8.864;2023-07-20T11:55:07;4.30;;;2.07;;
8327;SDS011;4201;48.754;8.864;2023-07-20T11:57:34;3.90;;;1.90;;
8327;SDS011;4201;48.754;8.864;2023-07-20T12:00:01;6.03;;;2.30;;
8327;SDS011;4201;48.754;8.864;2023-07-20T12:02:30;5.27;;;1.87;;
8327;SDS011;4201;48.754;8.864;2023-07-20T12:04:57;5.40;;;2.07;;
8327;SDS011;4201;48.754;8.864;2023-07-20T12:07:25;5.10;;;1.67;;
8327;SDS011;4201;48.754;8.864;2023-07-20T12:10:02;3.70;;;1.90;;
8327;SDS011;4201;48.754;8.864;2023-07-20T12:12:29;3.53;;;2.07;;
8327;SDS011;4201;48.754;8.864;2023-07-20T12:15:11;3.10;;;1.77;;
8327;SDS011;4201;48.754;8.864;2023-07-20T12:17:41;4.17;;;1.67;;
8327;SDS011;4201;48.754;8.864;2023-07-20T12:20:08;5.00;;;1.97;;
8327;SDS011;4201;48.754;8.864;2023-07-20T12:22:39;5.03;;;2.00;;
8327;SDS011;4201;48.754;8.864;2023-07-20T12:25:06;2.60;;;1.50;;
8327;SDS011;4201;48.754;8.864;2023-07-20T12:27:32;3.47;;;1.70;;
8327;SDS011;4201;48.754;8.864;2023-07-20T12:29:58;6.97;;;2.20;;
8327;SDS011;4201;48.754;8.864;2023-07-20T12:32:24;2.63;;;1.60;;
8327;SDS011;4201;48.754;8.864;2023-07-20T12:34:51;4.97;;;1.87;;
8327;SDS011;4201;48.754;8.864;2023-07-20T12:37:17;2.13;;;1.10;;
8327;SDS011;4201;48.754;8.864;2023-07-20T12:39:45;5.60;;;1.77;;
8327;SDS011;4201;48.754;8.864;2023-07-20T12:42:12;2.73;;;1.57;;
8327;SDS011;4201;48.754;8.864;2023-07-20T12:44:40;4.73;;;1.83;;
8327;SDS011;4201;48.754;8.864;2023-07-20T12:47:06;3.37;;;1.80;;
8327;SDS011;4201;48.754;8.864;2023-07-20T12:49:32;4.90;;;2.10;;
8327;SDS011;4201;48.754;8.864;2023-07-20T12:51:58;3.13;;;1.50;;
8327;SDS011;4201;48.754;8.864;2023-07-20T12:54:25;5.63;;;1.80;;
8327;SDS011;4201;48.754;8.864;2023-07-20T12:56:52;3.17;;;1.40;;
8327;SDS011;4201;48.754;8.864;2023-07-20T12:59:19;3.40;;;1.70;;
8327;SDS011;4201;48.754;8.864;2023-07-20T13:01:45;4.43;;;2.00;;
8327;SDS011;4201;48.754;8.864;2023-07-20T13:04:11;4.27;;;1.60;;
8327;SDS011;4201;48.754;8.864;2023-07-20T13:06:38;4.80;;;2.10;;
8327;SDS011;4201;48.754;8.864;2023-07-20T13:09:06;3.57;;;1.53;;
8327;SDS011;4201;48.754;8.864;2023-07-20T13:11:33;3.37;;;1.77;;
8327;SDS011;4201;48.754;8.864;2023-07-20T13:14:00;3.97;;;2.03;;
8327;SDS011;4201;48.754;8.864;2023-07-20T13:16:27;3.90;;;1.77;;
8327;SDS011;4201;48.754;8.864;2023-07-20T13:18:53;3.60;;;1.90;;
8327;SDS011;4201;48.754;8.864;2023-07-20T13:21:19;2.63;;;1.60;;
8327;SDS011;4201;48.754;8.864;2023-07-20T13:23:47;3.30;;;1.97;;
8327;SDS011;4201;48.754;8.864;2023-07-20T13:26:13;4.00;;;2.10;;
8327;SDS011;4201;48.754;8.864;2023-07-20T13:28:40;5.50;;;2.20;;
8327;SDS011;4201;48.754;8.864;2023-07-20T13:31:08;3.10;;;1.80;;
8327;SDS011;4201;48.754;8.864;2023-07-20T13:33:35;3.97;;;2.20;;
8327;SDS011;4201;48.754;8.864;2023-07-20T13:36:01;2.60;;;1.70;;
8327;SDS011;4201;48.754;8.864;2023-07-20T13:38:30;2.90;;;1.77;;
8327;SDS011;4201;48.754;8.864;2023-07-20T13:40:56;5.23;;;1.67;;
8327;SDS011;4201;48.754;8.864;2023-07-20T13:43:23;3.20;;;1.60;;
8327;SDS011;4201;48.754;8.864;2023-07-20T13:45:50;7.23;;;2.57;;
8327;SDS011;4201;48.754;8.864;2023-07-20T13:48:17;3.10;;;1.97;;
8327;SDS011;4201;48.754;8.864;2023-07-20T13:50:48;4.80;;;2.10;;
8327;SDS011;4201;48.754;8.864;2023-07-20T13:53:14;4.00;;;2.23;;
8327;SDS011;4201;48.754;8.864;2023-07-20T13:55:41;3.23;;;1.83;;
8327;SDS011;4201;48.754;8.864;2023-07-20T13:58:13;3.20;;;2.20;;
8327;SDS011;4201;48.754;8.864;2023-07-20T14:00:40;5.63;;;2.10;;
8327;SDS011;4201;48.754;8.864;2023-07-20T14:03:06;3.10;;;2.03;;
8327;SDS011;4201;48.754;8.864;2023-07-20T14:05:34;6.47;;;2.10;;
8327;SDS011;4201;48.754;8.864;2023-07-20T14:08:00;4.00;;;1.77;;
8327;SDS011;4201;48.754;8.864;2023-07-20T14:10:26;4.20;;;2.20;;
8327;SDS011;4201;48.754;8.864;2023-07-20T14:12:53;3.20;;;1.93;;
8327;SDS011;4201;48.754;8.864;2023-07-20T14:15:19;3.20;;;2.00;;
8327;SDS011;4201;48.754;8.864;2023-07-20T14:17:45;3.00;;;2.00;;
8327;SDS011;4201;48.754;8.864;2023-07-20T14:20:12;4.00;;;1.87;;
8327;SDS011;4201;48.754;8.864;2023-07-20T14:22:39;3.07;;;2.10;;
8327;SDS011;4201;48.754;8.864;2023-07-20T14:25:07;2.80;;;1.47;;
8327;SDS011;4201;48.754;8.864;2023-07-20T14:27:33;4.03;;;2.00;;
8327;SDS011;4201;48.754;8.864;2023-07-20T14:29:59;4.37;;;2.03;;
8327;SDS011;4201;48.754;8.864;2023-07-20T14:32:26;4.33;;;1.70;;
8327;SDS011;4201;48.754;8.864;2023-07-20T14:34:52;3.50;;;1.97;;
8327;SDS011;4201;48.754;8.864;2023-07-20T14:37:18;3.90;;;2.40;;
8327;SDS011;4201;48.754;8.864;2023-07-20T14:39:46;4.77;;;2.07;;
8327;SDS011;4201;48.754;8.864;2023-07-20T14:42:13;2.90;;;1.63;;
8327;SDS011;4201;48.754;8.864;2023-07-20T14:44:39;6.00;;;2.10;;
8327;SDS011;4201;48.754;8.864;2023-07-20T14:47:06;2.90;;;1.80;;
8327;SDS011;4201;48.754;8.864;2023-07-20T14:49:32;4.23;;;2.07;;
8327;SDS011;4201;48.754;8.864;2023-07-20T14:51:58;4.50;;;2.40;;
8327;SDS011;4201;48.754;8.864;2023-07-20T14:54:24;2.93;;;1.67;;
8327;SDS011;4201;48.754;8.864;2023-07-20T14:56:52;4.60;;;1.90;;
8327;SDS011;4201;48.754;8.864;2023-07-20T14:59:19;4.83;;;1.90;;
8327;SDS011;4201;48.754;8.864;2023-07-20T15:01:45;4.97;;;1.80;;
8327;SDS011;4201;48.754;8.864;2023-07-20T15:04:11;4.10;;;1.60;;
8327;SDS011;4201;48.754;8.864;2023-07-20T15:06:38;4.93;;;2.23;;
8327;SDS011;4201;48.754;8.864;2023-07-20T15:09:04;4.47;;;1.77;;
8327;SDS011;4201;48.754;8.864;2023-07-20T15:11:30;6.07;;;2.00;;
8327;SDS011;4201;48.754;8.864;2023-07-20T15:13:58;3.60;;;2.10;;
8327;SDS011;4201;48.754;8.864;2023-07-20T15:16:24;4.03;;;2.10;;
8327;SDS011;4201;48.754;8.864;2023-07-20T15:18:50;3.07;;;1.73;;
8327;SDS011;4201;48.754;8.864;2023-07-20T15:21:17;3.37;;;1.67;;
8327;SDS011;4201;48.754;8.864;2023-07-20T15:23:44;2.93;;;1.50;;
8327;SDS011;4201;48.754;8.864;2023-07-20T15:26:10;5.27;;;2.30;;
8327;SDS011;4201;48.754;8.864;2023-07-20T15:28:37;3.53;;;1.87;;
8327;SDS011;4201;48.754;8.864;2023-07-20T15:31:04;2.93;;;1.73;;
8327;SDS011;4201;48.754;8.864;2023-07-20T15:33:31;3.00;;;2.00;;
8327;SDS011;4201;48.754;8.864;2023-07-20T15:35:57;4.10;;;1.97;;
8327;SDS011;4201;48.754;8.864;2023-07-20T15:38:23;2.93;;;2.10;;
8327;SDS011;4201;48.754;8.864;2023-07-20T15:40:49;3.03;;;1.83;;
8327;SDS011;4201;48.754;8.864;2023-07-20T15:43:16;5.60;;;2.00;;
8327;SDS011;4201;48.754;8.864;2023-07-20T15:45:47;3.63;;;1.60;;
8327;SDS011;4201;48.754;8.864;2023-07-20T15:48:17;4.77;;;2.17;;
8327;SDS011;4201;48.754;8.864;2023-07-20T15:50:45;3.00;;;1.67;;
8327;SDS011;4201;48.754;8.864;2023-07-20T15:53:11;6.80;;;2.40;;
8327;SDS011;4201;48.754;8.864;2023-07-20T15:55:38;3.50;;;2.10;;
8327;SDS011;4201;48.754;8.864;2023-07-20T15:58:04;3.03;;;1.90;;
8327;SDS011;4201;48.754;8.864;2023-07-20T16:00:30;3.20;;;1.70;;
8327;SDS011;4201;48.754;8.864;2023-07-20T16:02:56;4.33;;;1.60;;
8327;SDS011;4201;48.754;8.864;2023-07-20T16:05:24;3.10;;;1.80;;
8327;SDS011;4201;48.754;8.864;2023-07-20T16:07:50;2.30;;;1.43;;
8327;SDS011;4201;48.754;8.864;2023-07-20T16:10:17;5.83;;;1.80;;
8327;SDS011;4201;48.754;8.864;2023-07-20T16:12:43;5.90;;;2.07;;
8327;SDS011;4201;48.754;8.864;2023-07-20T16:15:10;3.83;;;1.73;;
8327;SDS011;4201;48.754;8.864;2023-07-20T16:17:37;4.20;;;2.70;;
8327;SDS011;4201;48.754;8.864;2023-07-20T16:20:04;2.47;;;1.57;;
8327;SDS011;4201;48.754;8.864;2023-07-20T16:22:33;5.60;;;2.27;;
8327;SDS011;4201;48.754;8.864;2023-07-20T16:25:00;4.80;;;1.97;;
8327;SDS011;4201;48.754;8.864;2023-07-20T16:27:26;4.00;;;2.00;;
8327;SDS011;4201;48.754;8.864;2023-07-20T16:29:52;2.83;;;1.47;;
8327;SDS011;4201;48.754;8.864;2023-07-20T16:32:18;3.77;;;2.00;;
8327;SDS011;4201;48.754;8.864;2023-07-20T16:34:45;3.50;;;1.80;;
8327;SDS011;4201;48.754;8.864;2023-07-20T16:37:11;4.03;;;1.83;;
8327;SDS011;4201;48.754;8.864;2023-07-20T16:39:39;3.10;;;1.83;;
8327;SDS011;4201;48.754;8.864;2023-07-20T16:42:06;3.30;;;2.13;;
8327;SDS011;4201;48.754;8.864;2023-07-20T16:44:33;4.10;;;1.50;;
8327;SDS011;4201;48.754;8.864;2023-07-20T16:46:59;3.33;;;1.50;;
8327;SDS011;4201;48.754;8.864;2023-07-20T16:49:25;2.90;;;1.83;;
8327;SDS011;4201;48.754;8.864;2023-07-20T16:51:52;4.67;;;1.90;;
8327;SDS011;4201;48.754;8.864;2023-07-20T16:54:20;4.10;;;2.00;;
8327;SDS011;4201;48.754;8.864;2023-07-20T16:56:48;3.60;;;2.10;;
8327;SDS011;4201;48.754;8.864;2023-07-20T16:59:14;3.13;;;1.80;;
8327;SDS011;4201;48.754;8.864;2023-07-20T17:01:42;7.23;;;2.00;;
8327;SDS011;4201;48.754;8.864;2023-07-20T17:04:09;4.37;;;2.20;;
8327;SDS011;4201;48.754;8.864;2023-07-20T17:06:39;4.43;;;2.00;;
8327;SDS011;4201;48.754;8.864;2023-07-20T17:09:06;4.20;;;2.83;;
8327;SDS011;4201;48.754;8.864;2023-07-20T17:11:32;4.60;;;2.40;;
8327;SDS011;4201;48.754;8.864;2023-07-20T17:13:59;3.97;;;2.80;;
8327;SDS011;4201;48.754;8.864;2023-07-20T17:16:26;4.90;;;2.47;;
8327;SDS011;4201;48.754;8.864;2023-07-20T17:18:52;3.53;;;1.90;;
8327;SDS011;4201;48.754;8.864;2023-07-20T17:21:18;3.77;;;2.10;;
8327;SDS011;4201;48.754;8.864;2023-07-20T17:23:45;3.13;;;1.93;;
8327;SDS011;4201;48.754;8.864;2023-07-20T17:26:11;2.87;;;1.90;;
8327;SDS011;4201;48.754;8.864;2023-07-20T17:28:37;3.70;;;2.03;;
8327;SDS011;4201;48.754;8.864;2023-07-20T17:31:05;3.87;;;2.23;;
8327;SDS011;4201;48.754;8.864;2023-07-20T17:33:32;3.70;;;2.27;;
8327;SDS011;4201;48.754;8.864;2023-07-20T17:35:58;3.97;;;1.90;;
8327;SDS011;4201;48.754;8.864;2023-07-20T17:38:24;3.43;;;1.90;;
8327;SDS011;4201;48.754;8.864;2023-07-20T17:40:50;4.90;;;2.00;;
8327;SDS011;4201;48.754;8.864;2023-07-20T17:43:17;3.27;;;2.00;;